createdAt,value
2022-10-18T00:00:00.749Z,14.62
2022-10-18T00:10:02.080Z,14.68
2022-10-18T00:20:03.394Z,14.83
2022-10-18T00:30:04.717Z,14.88
2022-10-18T00:40:06.044Z,14.95
2022-10-18T00:50:07.323Z,15.11
2022-10-18T01:00:10.126Z,15.18
2022-10-18T01:10:11.574Z,15.20
2022-10-18T01:20:12.933Z,15.22
2022-10-18T01:30:14.255Z,15.22
2022-10-18T01:40:15.547Z,15.22
2022-10-18T01:50:16.824Z,15.18
2022-10-18T02:00:18.142Z,15.16
2022-10-18T02:10:19.519Z,15.16
2022-10-18T02:20:20.869Z,15.12
2022-10-18T02:30:22.177Z,15.15
2022-10-18T02:40:23.468Z,15.05
2022-10-18T02:50:24.661Z,15.05
2022-10-18T03:00:26.076Z,15.10
2022-10-18T03:10:27.337Z,15.12
2022-10-18T03:20:28.618Z,15.12
2022-10-18T03:30:29.942Z,15.18
2022-10-18T03:50:32.372Z,15.25
2022-10-18T04:00:33.781Z,15.32
2022-10-18T04:10:35.087Z,15.60
2022-10-18T04:20:36.460Z,15.69
2022-10-18T04:30:37.842Z,15.56
2022-10-18T04:40:39.175Z,15.51
2022-10-18T04:50:40.709Z,15.43
2022-10-18T05:00:42.204Z,15.35
2022-10-18T05:10:43.589Z,15.47
2022-10-18T05:20:44.894Z,15.57
2022-10-18T05:30:46.235Z,15.64
2022-10-18T05:40:47.833Z,15.66
2022-10-18T05:50:49.143Z,15.65
2022-10-18T06:00:50.533Z,15.79
2022-10-18T06:10:51.798Z,15.90
2022-10-18T06:20:53.062Z,16.02
2022-10-18T06:30:54.363Z,16.15
2022-10-18T06:40:55.664Z,16.24
2022-10-18T06:50:57.083Z,16.35
2022-10-18T07:00:58.393Z,16.13
2022-10-18T07:10:59.682Z,16.07
2022-10-18T07:21:00.991Z,16.10
2022-10-18T07:31:05.176Z,16.16
2022-10-18T07:41:07.662Z,16.16
2022-10-18T07:51:09.239Z,16.22
2022-10-18T08:01:10.610Z,16.35
2022-10-18T08:11:12.005Z,16.50
2022-10-18T08:21:13.318Z,16.80
2022-10-18T08:31:14.719Z,17.27
2022-10-18T08:41:16.059Z,17.33
2022-10-18T08:51:17.536Z,17.42
2022-10-18T09:01:18.823Z,17.75
2022-10-18T09:11:20.191Z,17.94
2022-10-18T09:21:22.967Z,18.09
2022-10-18T09:31:24.305Z,18.31
2022-10-18T09:41:25.688Z,18.46
2022-10-18T09:51:27.072Z,18.54
2022-10-18T10:01:28.454Z,18.85
2022-10-18T10:11:29.791Z,19.16
2022-10-18T10:21:31.152Z,19.32
2022-10-18T10:31:32.475Z,19.15
2022-10-18T10:41:34.099Z,18.92
2022-10-18T10:51:36.532Z,19.04
2022-10-18T11:01:37.925Z,19.65
2022-10-18T11:11:39.227Z,19.93
2022-10-18T11:21:40.551Z,20.18
2022-10-18T11:31:41.880Z,20.10
2022-10-18T11:41:43.262Z,20.21
2022-10-18T11:52:03.548Z,20.02
2022-10-18T12:02:06.056Z,20.02
2022-10-18T12:12:07.353Z,20.24
2022-10-18T12:22:08.664Z,20.40
2022-10-18T12:32:09.961Z,20.62
2022-10-18T12:42:11.290Z,20.73
2022-10-18T12:52:12.588Z,20.56
2022-10-18T13:02:13.924Z,20.38
2022-10-18T13:12:15.134Z,20.33
2022-10-18T13:22:16.454Z,20.54
2022-10-18T13:42:18.990Z,20.58
2022-10-18T13:52:20.304Z,20.53
2022-10-18T14:02:36.410Z,20.51
2022-10-18T14:12:42.984Z,20.36
2022-10-18T14:22:44.198Z,20.28
2022-10-18T14:32:45.526Z,20.22
2022-10-18T14:42:46.814Z,20.11
2022-10-18T14:52:48.047Z,20.06
2022-10-18T15:02:49.384Z,20.07
2022-10-18T15:13:08.667Z,19.73
2022-10-18T15:23:10.933Z,19.47
2022-10-18T15:33:12.229Z,19.21
2022-10-18T15:43:13.633Z,19.07
2022-10-18T15:53:14.972Z,18.82
2022-10-18T16:03:16.330Z,18.67
2022-10-18T16:13:18.903Z,18.48
2022-10-18T16:23:20.307Z,18.41
2022-10-18T16:33:21.815Z,18.33
2022-10-18T16:43:23.384Z,18.25
2022-10-18T16:53:25.060Z,18.15
2022-10-18T17:03:26.371Z,18.20
2022-10-18T17:13:27.630Z,18.12
2022-10-18T17:23:28.991Z,18.13
2022-10-18T17:33:30.243Z,18.04
2022-10-18T17:43:31.622Z,18.05
2022-10-18T17:53:34.955Z,17.78
2022-10-18T18:03:36.301Z,17.65
2022-10-18T18:13:37.524Z,17.60
2022-10-18T18:23:38.816Z,17.53
2022-10-18T18:44:25.393Z,17.41
2022-10-18T18:54:28.681Z,17.37
2022-10-18T19:04:30.295Z,17.31
2022-10-18T19:14:31.609Z,17.24
2022-10-18T19:24:33.243Z,17.12
2022-10-18T19:34:34.596Z,17.07
2022-10-18T19:44:36.201Z,17.13
2022-10-18T19:54:37.542Z,17.00
2022-10-18T20:04:38.875Z,16.88
2022-10-18T20:14:40.236Z,16.56
2022-10-18T20:24:41.593Z,16.35
2022-10-18T20:34:42.855Z,16.20
2022-10-18T20:44:44.359Z,15.85
2022-10-18T20:54:45.706Z,15.96
2022-10-18T21:04:47.096Z,15.89
2022-10-18T21:14:48.339Z,15.82
2022-10-18T21:24:49.705Z,15.65
2022-10-18T21:34:51.031Z,15.48
2022-10-18T21:44:52.380Z,15.42
2022-10-18T21:54:54.081Z,15.36
2022-10-18T22:04:55.418Z,15.28
2022-10-18T22:14:56.757Z,15.14
2022-10-18T22:24:58.214Z,14.99
2022-10-18T22:34:59.568Z,14.85
2022-10-18T22:45:00.996Z,14.75
2022-10-18T22:55:02.380Z,14.80
2022-10-18T23:05:03.712Z,14.83
2022-10-18T23:15:05.032Z,14.73
2022-10-18T23:25:06.425Z,14.63
2022-10-18T23:35:07.766Z,14.50
2022-10-18T23:45:09.210Z,14.41
2022-10-18T23:55:10.525Z,14.63
